Time;durP1;ratioP1;P1;durP2;ratioP2;P2;SDS_P1;SDS_P2;PMS_P1;PMS_P2;Temp;Humidity;BMP_temperature;BMP_pressure;BME280_temperature;BME280_humidity;BME280_pressure;Samples;Min_cycle;Max_cycle;Signal;HPM_P1;HPM_P2
2022/06/28 00:02:05;;;;;;;5.03;4.53;;;25.80;99.90;;;;;;5019680;28;20459;-49
2022/06/28 00:04:33;;;;;;;5.20;4.80;;;25.70;99.90;;;;;;5019876;28;20405;-49
2022/06/28 00:07:00;;;;;;;5.37;4.77;;;25.60;99.90;;;;;;5019419;28;20443;-47
2022/06/28 00:09:27;;;;;;;4.80;4.40;;;25.50;99.90;;;;;;5019300;28;20433;-50
2022/06/28 00:11:55;;;;;;;6.80;5.00;;;25.50;99.90;;;;;;5019083;28;20447;-51
2022/06/28 00:17:08;;;;;;;4.80;4.40;;;25.40;99.90;;;;;;5019238;28;20480;-51
2022/06/28 00:19:35;;;;;;;5.90;5.40;;;25.40;99.90;;;;;;5018933;28;20425;-50
2022/06/28 00:22:03;;;;;;;4.27;3.87;;;25.30;99.90;;;;;;5020218;28;20516;-53
2022/06/28 00:24:30;;;;;;;4.60;4.23;;;25.30;99.90;;;;;;5018916;28;20446;-46
2022/06/28 00:27:01;;;;;;;4.80;4.40;;;25.30;99.90;;;;;;5027913;28;20802;-47
2022/06/28 00:29:28;;;;;;;5.37;4.93;;;25.40;99.90;;;;;;5022186;28;20442;-51
2022/06/28 00:31:55;;;;;;;5.57;4.97;;;25.50;99.90;;;;;;5019081;28;20466;-50
2022/06/28 00:34:22;;;;;;;5.77;5.27;;;25.60;99.90;;;;;;5018825;28;20643;-46
2022/06/28 00:36:50;;;;;;;5.60;4.80;;;25.70;99.90;;;;;;5019517;28;20421;-49
2022/06/28 00:39:18;;;;;;;4.83;4.43;;;25.70;99.90;;;;;;5019153;28;20408;-45
2022/06/28 00:41:45;;;;;;;4.63;4.23;;;25.70;99.90;;;;;;5017948;28;20429;-48
2022/06/28 00:44:13;;;;;;;4.23;3.93;;;25.70;99.90;;;;;;5019031;28;20818;-49
2022/06/28 00:46:41;;;;;;;5.87;5.30;;;25.70;99.90;;;;;;5017133;28;20649;-49
2022/06/28 00:49:09;;;;;;;6.20;5.10;;;25.60;99.90;;;;;;5019283;28;20425;-49
2022/06/28 00:51:37;;;;;;;5.30;4.90;;;25.50;99.90;;;;;;5016591;28;20487;-50
2022/06/28 00:54:04;;;;;;;5.53;4.73;;;25.60;99.90;;;;;;5019257;28;20440;-46
2022/06/28 00:56:31;;;;;;;5.40;5.00;;;25.40;99.90;;;;;;5019034;28;20439;-49
2022/06/28 00:58:59;;;;;;;8.57;6.50;;;25.40;99.90;;;;;;5019435;28;20479;-50
2022/06/28 01:01:27;;;;;;;5.40;4.90;;;25.20;99.90;;;;;;5018340;28;20443;-48
2022/06/28 01:03:55;;;;;;;6.30;5.70;;;25.20;99.90;;;;;;5019014;28;20762;-47
2022/06/28 01:06:22;;;;;;;7.07;5.53;;;25.20;99.90;;;;;;5018760;28;20424;-47
2022/06/28 01:08:50;;;;;;;5.10;4.70;;;25.20;99.90;;;;;;5019278;28;20454;-51
2022/06/28 01:11:20;;;;;;;7.13;5.30;;;25.10;99.90;;;;;;5018217;28;20547;-49
2022/06/28 01:13:50;;;;;;;5.47;4.93;;;24.90;99.90;;;;;;5010752;28;20455;-46
2022/06/28 01:16:18;;;;;;;6.43;5.83;;;24.90;99.90;;;;;;5018179;28;20446;-49
2022/06/28 01:18:46;;;;;;;6.43;5.93;;;25.00;99.90;;;;;;5018957;28;20413;-49
2022/06/28 01:21:15;;;;;;;6.63;6.13;;;25.00;99.90;;;;;;5019059;28;20784;-48
2022/06/28 01:23:44;;;;;;;6.97;6.23;;;25.00;99.90;;;;;;5018615;28;20437;-48
2022/06/28 01:26:21;;;;;;;6.33;5.83;;;25.00;99.90;;;;;;5018723;28;20484;-50
2022/06/28 01:28:50;;;;;;;6.50;5.83;;;25.10;99.90;;;;;;5018548;28;20441;-45
2022/06/28 01:31:19;;;;;;;7.10;6.50;;;25.00;99.90;;;;;;5018622;28;20894;-49
2022/06/28 01:33:48;;;;;;;6.60;6.10;;;25.00;99.90;;;;;;5018587;28;20466;-48
2022/06/28 01:36:15;;;;;;;8.70;6.53;;;25.00;99.90;;;;;;5018479;28;20489;-47
2022/06/28 01:38:43;;;;;;;6.57;6.00;;;24.90;99.90;;;;;;5021960;28;20434;-52
2022/06/28 01:41:32;;;;;;;8.27;7.50;;;25.00;99.90;;;;;;5022622;28;20448;-52
2022/06/28 01:44:02;;;;;;;7.03;6.50;;;25.00;99.90;;;;;;5020904;28;20751;-48
2022/06/28 01:46:31;;;;;;;7.57;5.97;;;25.00;99.90;;;;;;5022489;28;20419;-49
2022/06/28 01:48:58;;;;;;;7.47;6.77;;;25.00;99.90;;;;;;5022253;28;20428;-52
2022/06/28 01:51:25;;;;;;;6.33;5.73;;;24.90;99.90;;;;;;5022055;28;20536;-52
2022/06/28 01:53:53;;;;;;;7.70;6.77;;;24.90;99.90;;;;;;5022298;28;20433;-50
2022/06/28 01:56:20;;;;;;;7.13;6.63;;;24.90;99.90;;;;;;5022359;28;20414;-47
2022/06/28 01:58:48;;;;;;;6.43;5.93;;;24.80;99.90;;;;;;5015803;28;20410;-53
2022/06/28 02:01:15;;;;;;;6.70;6.20;;;24.90;99.90;;;;;;5021718;28;20442;-52
2022/06/28 02:03:42;;;;;;;7.17;6.47;;;24.80;99.90;;;;;;5021582;28;20436;-48
2022/06/28 02:06:10;;;;;;;8.47;7.67;;;24.80;99.90;;;;;;5021402;28;20448;-47
2022/06/28 02:08:37;;;;;;;9.50;6.53;;;24.80;99.90;;;;;;5021919;28;20751;-47
2022/06/28 02:11:05;;;;;;;11.97;6.73;;;24.80;99.90;;;;;;5021333;28;20448;-44
2022/06/28 02:13:33;;;;;;;7.83;6.30;;;24.70;99.90;;;;;;5021468;28;20520;-48
2022/06/28 02:16:02;;;;;;;6.77;5.97;;;24.70;99.90;;;;;;5021558;28;20493;-50
2022/06/28 02:18:33;;;;;;;7.00;6.40;;;24.70;99.90;;;;;;5022008;28;20443;-44
2022/06/28 02:21:01;;;;;;;7.03;6.33;;;24.70;99.90;;;;;;5021932;28;20434;-48
2022/06/28 02:23:28;;;;;;;5.57;5.17;;;24.60;99.90;;;;;;5021734;28;20505;-48
2022/06/28 02:25:59;;;;;;;6.13;5.63;;;24.60;99.90;;;;;;5022277;28;20442;-45
2022/06/28 02:28:26;;;;;;;8.20;5.67;;;24.60;99.90;;;;;;5021938;28;20425;-49
2022/06/28 02:30:53;;;;;;;7.00;6.40;;;24.60;99.90;;;;;;5021884;28;20810;-45
2022/06/28 02:33:20;;;;;;;5.77;5.30;;;24.50;99.90;;;;;;5019673;28;20466;-49
2022/06/28 02:41:19;;;;;;;5.60;5.20;;;24.30;99.90;;;;;;5017909;28;20413;-51
2022/06/28 02:43:47;;;;;;;6.27;5.67;;;24.20;99.90;;;;;;5015906;28;20797;-51
2022/06/28 02:46:14;;;;;;;6.33;5.83;;;24.20;99.90;;;;;;5016023;28;20672;-48
2022/06/28 02:48:41;;;;;;;5.80;5.23;;;24.10;99.90;;;;;;5013846;28;20418;-49
2022/06/28 02:51:08;;;;;;;6.13;5.57;;;24.00;99.90;;;;;;5005356;28;20546;-49
2022/06/28 02:53:37;;;;;;;5.83;5.23;;;24.00;99.90;;;;;;5013842;28;20931;-49
2022/06/28 02:56:05;;;;;;;12.10;5.83;;;23.90;99.90;;;;;;5029449;28;20639;-45
2022/06/28 02:58:32;;;;;;;6.00;5.50;;;23.90;99.90;;;;;;5012987;28;20697;-47
2022/06/28 03:00:59;;;;;;;5.73;5.30;;;23.80;99.90;;;;;;5012742;28;20468;-50
2022/06/28 03:03:27;;;;;;;6.50;5.90;;;23.60;99.90;;;;;;5008259;28;20500;-49
2022/06/28 03:05:54;;;;;;;6.30;5.40;;;23.60;99.90;;;;;;5015505;28;20505;-47
2022/06/28 03:08:22;;;;;;;5.97;5.47;;;23.60;99.90;;;;;;5006867;28;20705;-47
2022/06/28 03:10:50;;;;;;;6.53;5.73;;;23.60;99.90;;;;;;5015247;28;20828;-51
2022/06/28 03:13:17;;;;;;;5.80;5.30;;;23.50;99.90;;;;;;5010655;28;20459;-47
2022/06/28 03:15:44;;;;;;;7.40;6.07;;;23.50;99.90;;;;;;5014490;28;20753;-50
2022/06/28 03:18:12;;;;;;;6.03;5.47;;;23.50;99.90;;;;;;5020683;28;20646;-48
2022/06/28 03:20:40;;;;;;;6.60;5.83;;;23.30;99.90;;;;;;5019884;28;20460;-52
2022/06/28 03:23:07;;;;;;;10.70;6.70;;;22.60;99.90;;;;;;5020601;28;20437;-52
2022/06/28 03:25:39;;;;;;;6.03;5.63;;;21.90;99.90;;;;;;5020285;28;20432;-48
2022/06/28 03:28:06;;;;;;;8.00;7.23;;;21.60;99.90;;;;;;5035504;28;20452;-51
2022/06/28 03:30:34;;;;;;;7.00;6.30;;;21.40;99.90;;;;;;5020154;28;20421;-54
2022/06/28 03:33:01;;;;;;;12.37;6.20;;;21.20;99.90;;;;;;5019907;28;20803;-51
2022/06/28 03:35:29;;;;;;;8.50;7.70;;;21.10;99.90;;;;;;5020305;28;20536;-51
2022/06/28 03:37:56;;;;;;;7.57;6.83;;;21.00;99.90;;;;;;5020168;28;20423;-48
2022/06/28 03:40:24;;;;;;;6.07;5.57;;;21.00;99.90;;;;;;5017313;28;20769;-51
2022/06/28 03:42:51;;;;;;;10.50;7.23;;;21.00;99.90;;;;;;5012756;28;20469;-49
2022/06/28 03:45:18;;;;;;;8.20;7.60;;;21.00;99.90;;;;;;5020256;28;20503;-53
2022/06/28 03:47:46;;;;;;;7.97;7.27;;;21.00;99.90;;;;;;5020004;28;20664;-54
2022/06/28 03:50:13;;;;;;;7.20;6.50;;;21.00;99.90;;;;;;5020136;28;20473;-49
2022/06/28 03:52:40;;;;;;;7.90;7.13;;;21.00;99.90;;;;;;5019478;28;20467;-46
2022/06/28 03:55:10;;;;;;;7.97;7.27;;;21.10;99.90;;;;;;5020122;28;20550;-46
2022/06/28 03:57:37;;;;;;;7.30;6.70;;;21.20;99.90;;;;;;5019477;28;20409;-49
2022/06/28 04:00:05;;;;;;;7.13;6.50;;;21.40;99.90;;;;;;5019546;28;20518;-46
2022/06/28 04:02:33;;;;;;;7.83;7.23;;;21.50;99.90;;;;;;5019551;28;20691;-49
2022/06/28 04:05:00;;;;;;;7.90;7.20;;;21.60;99.90;;;;;;5020022;28;20434;-51
2022/06/28 04:07:27;;;;;;;8.77;7.87;;;21.60;99.90;;;;;;5016666;28;20601;-52
2022/06/28 04:09:54;;;;;;;8.20;7.60;;;21.60;99.90;;;;;;5021621;28;20654;-51
2022/06/28 04:12:21;;;;;;;8.60;7.80;;;21.60;99.90;;;;;;5023151;28;20449;-50
2022/06/28 04:14:49;;;;;;;8.50;7.70;;;21.60;99.90;;;;;;5023072;28;20450;-47
2022/06/28 04:17:16;;;;;;;8.70;7.93;;;21.70;99.90;;;;;;5031206;28;20536;-53
2022/06/28 04:19:43;;;;;;;8.90;8.07;;;21.70;99.90;;;;;;5019190;28;20434;-48
2022/06/28 04:22:11;;;;;;;13.73;8.20;;;21.80;99.90;;;;;;5019279;28;20495;-49
2022/06/28 04:24:38;;;;;;;12.30;8.23;;;21.80;99.90;;;;;;5018906;28;20408;-51
2022/06/28 04:27:09;;;;;;;10.07;8.43;;;21.80;99.90;;;;;;5028793;28;20415;-50
2022/06/28 04:29:36;;;;;;;8.70;8.00;;;21.80;99.90;;;;;;5026690;28;20401;-48
2022/06/28 04:32:04;;;;;;;10.37;8.60;;;21.80;99.90;;;;;;5024124;28;20505;-47
2022/06/28 04:34:31;;;;;;;9.00;8.20;;;21.80;99.90;;;;;;5026832;28;20490;-53
2022/06/28 04:36:59;;;;;;;8.67;7.87;;;21.80;99.90;;;;;;5027371;28;20796;-45
2022/06/28 04:39:26;;;;;;;8.27;7.47;;;21.90;99.90;;;;;;5022798;28;20446;-48
2022/06/28 04:41:54;;;;;;;9.10;8.30;;;22.00;99.90;;;;;;5025009;28;20441;-50
2022/06/28 04:44:21;;;;;;;9.10;8.07;;;22.00;99.90;;;;;;5018899;28;20488;-46
2022/06/28 04:46:48;;;;;;;9.47;7.80;;;22.00;99.90;;;;;;5016083;28;20794;-47
2022/06/28 04:49:16;;;;;;;9.87;8.97;;;21.90;99.90;;;;;;5019313;28;20484;-49
2022/06/28 04:51:43;;;;;;;9.77;8.97;;;21.90;99.90;;;;;;5018291;28;20456;-49
2022/06/28 04:54:11;;;;;;;9.40;8.53;;;22.00;99.90;;;;;;5018902;28;20462;-47
2022/06/28 04:56:38;;;;;;;9.77;8.90;;;22.10;99.90;;;;;;5011494;28;20471;-50
2022/06/28 04:59:05;;;;;;;10.93;9.40;;;22.10;99.90;;;;;;5019351;28;20772;-46
2022/06/28 05:01:32;;;;;;;10.20;9.33;;;22.10;99.90;;;;;;5009161;28;20413;-51
2022/06/28 05:04:02;;;;;;;12.63;9.07;;;22.20;99.90;;;;;;5020235;28;20518;-53
2022/06/28 05:06:30;;;;;;;8.37;7.73;;;22.20;99.90;;;;;;5020343;28;20405;-47
2022/06/28 05:08:58;;;;;;;8.30;7.70;;;22.20;99.90;;;;;;5012134;28;20620;-51
2022/06/28 05:11:45;;;;;;;8.83;8.00;;;22.30;99.90;;;;;;5029991;28;20604;-48
2022/06/28 05:14:13;;;;;;;10.57;9.47;;;22.30;99.90;;;;;;5022652;28;20438;-50
2022/06/28 05:16:40;;;;;;;9.47;8.67;;;22.40;99.90;;;;;;5022906;28;20421;-48
2022/06/28 05:19:08;;;;;;;10.73;8.30;;;22.50;99.90;;;;;;5021624;28;20588;-51
2022/06/28 05:21:35;;;;;;;7.87;7.20;;;22.60;99.90;;;;;;5031220;28;20463;-51
2022/06/28 05:24:04;;;;;;;9.23;8.53;;;22.80;99.90;;;;;;5022342;28;20561;-49
2022/06/28 05:26:31;;;;;;;9.13;8.33;;;22.90;99.90;;;;;;5022716;28;20416;-50
2022/06/28 05:28:58;;;;;;;8.37;7.57;;;23.00;99.90;;;;;;5026152;28;20412;-46
2022/06/28 05:31:26;;;;;;;7.90;7.30;;;23.20;99.90;;;;;;5021963;28;20455;-48
2022/06/28 05:33:55;;;;;;;8.57;7.77;;;23.40;99.90;;;;;;5034050;28;20447;-48
2022/06/28 05:36:22;;;;;;;8.13;7.40;;;23.40;99.90;;;;;;5024678;28;20440;-51
2022/06/28 05:38:52;;;;;;;8.27;6.93;;;23.70;99.90;;;;;;5022823;28;20749;-49
2022/06/28 05:41:20;;;;;;;8.20;7.40;;;23.80;99.90;;;;;;5021313;28;20795;-56
2022/06/28 05:43:53;;;;;;;8.30;7.50;;;23.70;99.90;;;;;;5018709;28;20468;-48
2022/06/28 05:46:20;;;;;;;8.53;7.73;;;23.70;99.90;;;;;;5022177;28;20465;-49
2022/06/28 05:48:47;;;;;;;7.93;7.13;;;23.60;99.90;;;;;;5021560;28;20445;-51
2022/06/28 05:51:16;;;;;;;12.63;9.40;;;23.70;99.90;;;;;;5022225;28;20535;-50
2022/06/28 05:53:43;;;;;;;8.60;7.70;;;23.80;99.90;;;;;;5014690;28;20433;-51
2022/06/28 05:56:11;;;;;;;10.43;8.33;;;23.80;99.90;;;;;;5022354;28;20472;-50
2022/06/28 05:58:38;;;;;;;7.60;6.90;;;23.70;99.90;;;;;;5021691;28;20425;-52
2022/06/28 06:01:06;;;;;;;8.40;7.53;;;23.90;99.90;;;;;;5022771;28;20412;-49
2022/06/28 06:03:33;;;;;;;8.70;8.00;;;24.10;99.90;;;;;;5021719;28;20620;-53
2022/06/28 06:06:01;;;;;;;9.50;8.73;;;24.10;99.90;;;;;;5033818;28;20447;-54
2022/06/28 06:08:28;;;;;;;9.07;8.27;;;23.90;99.90;;;;;;5028592;28;20451;-53
2022/06/28 06:10:56;;;;;;;7.90;7.30;;;23.90;99.90;;;;;;5029910;28;20768;-53
2022/06/28 06:13:23;;;;;;;8.30;7.50;;;23.80;99.90;;;;;;5030529;28;20620;-49
2022/06/28 06:15:50;;;;;;;14.00;7.20;;;23.70;99.90;;;;;;5035440;28;20431;-53
2022/06/28 06:18:18;;;;;;;9.53;8.17;;;23.50;99.90;;;;;;5017157;28;20448;-50
2022/06/28 06:20:45;;;;;;;14.13;9.23;;;23.40;99.90;;;;;;5029825;28;20430;-46
2022/06/28 06:23:12;;;;;;;8.83;8.03;;;23.30;99.90;;;;;;5020735;28;20428;-53
2022/06/28 06:25:39;;;;;;;7.73;7.03;;;23.20;99.90;;;;;;5021703;28;20797;-50
2022/06/28 06:28:07;;;;;;;7.90;7.20;;;22.90;99.90;;;;;;5021729;28;20752;-48
2022/06/28 06:30:34;;;;;;;7.73;6.40;;;22.80;99.90;;;;;;5023879;28;20417;-49
2022/06/28 06:33:01;;;;;;;8.03;7.40;;;22.70;99.90;;;;;;5027346;28;20457;-48
2022/06/28 06:35:28;;;;;;;7.47;6.87;;;22.60;99.90;;;;;;5020750;28;20439;-49
2022/06/28 06:38:00;;;;;;;8.47;7.27;;;22.60;99.90;;;;;;5018573;28;20444;-49
2022/06/28 06:40:29;;;;;;;9.70;7.63;;;22.80;99.90;;;;;;5017154;28;20463;-53
2022/06/28 06:42:57;;;;;;;9.10;8.17;;;23.00;99.90;;;;;;5020518;28;20441;-52
2022/06/28 06:45:24;;;;;;;10.90;7.97;;;23.00;99.90;;;;;;5021259;28;20620;-52
2022/06/28 06:47:52;;;;;;;8.37;6.60;;;22.90;99.90;;;;;;5020641;28;20419;-53
2022/06/28 06:50:20;;;;;;;7.50;6.83;;;22.80;99.90;;;;;;5020981;28;20417;-51
2022/06/28 06:52:48;;;;;;;8.57;7.70;;;22.70;99.90;;;;;;5012971;28;20647;-47
2022/06/28 06:55:16;;;;;;;8.17;7.57;;;22.80;99.90;;;;;;5020822;28;20712;-51
2022/06/28 06:57:44;;;;;;;6.57;5.90;;;22.80;99.90;;;;;;5020579;28;20485;-49
2022/06/28 07:00:12;;;;;;;13.40;6.93;;;22.80;99.90;;;;;;5016637;28;20616;-53
2022/06/28 07:02:46;;;;;;;7.10;6.40;;;22.60;99.90;;;;;;5011892;28;20562;-50
2022/06/28 07:05:16;;;;;;;5.97;5.47;;;22.60;99.90;;;;;;5009189;28;20473;-53
2022/06/28 07:07:44;;;;;;;5.97;5.53;;;22.80;99.90;;;;;;5013387;28;20413;-49
2022/06/28 07:10:11;;;;;;;7.10;6.47;;;22.80;99.90;;;;;;5008075;28;20445;-50
2022/06/28 07:12:44;;;;;;;5.73;5.20;;;22.90;99.90;;;;;;5026269;28;20481;-54
2022/06/28 07:15:11;;;;;;;6.00;5.50;;;22.80;99.90;;;;;;5016353;28;20464;-55
2022/06/28 07:17:39;;;;;;;6.80;5.73;;;22.70;99.90;;;;;;5018082;28;20586;-48
2022/06/28 07:20:07;;;;;;;7.13;6.40;;;22.70;99.90;;;;;;5015339;28;20757;-52
2022/06/28 07:22:34;;;;;;;6.17;5.67;;;22.80;99.90;;;;;;5016314;28;20471;-50
2022/06/28 07:25:02;;;;;;;9.17;7.37;;;23.00;99.90;;;;;;5017651;28;20447;-51
2022/06/28 07:27:29;;;;;;;6.60;5.67;;;23.20;99.90;;;;;;5013846;28;20517;-49
2022/06/28 07:29:56;;;;;;;8.93;6.00;;;23.30;99.90;;;;;;5014813;28;20413;-52
2022/06/28 07:32:23;;;;;;;5.73;5.23;;;23.50;99.90;;;;;;5011742;28;20808;-51
2022/06/28 07:34:50;;;;;;;5.87;5.43;;;23.60;99.90;;;;;;5008481;28;20484;-49
2022/06/28 07:37:18;;;;;;;15.17;6.50;;;24.10;99.90;;;;;;5003491;28;20427;-55
2022/06/28 07:39:45;;;;;;;6.03;5.43;;;24.30;99.90;;;;;;5015602;28;20785;-48
2022/06/28 07:42:12;;;;;;;5.80;5.30;;;24.20;99.90;;;;;;5010218;28;20466;-52
2022/06/28 07:44:39;;;;;;;5.00;4.63;;;24.10;99.90;;;;;;5019460;28;20989;-49
2022/06/28 07:47:06;;;;;;;5.37;4.87;;;23.80;99.90;;;;;;5017158;28;20435;-53
2022/06/28 07:52:34;;;;;;;4.87;4.30;;;23.30;99.90;;;;;;5010181;28;20460;-52
2022/06/28 07:55:04;;;;;;;11.40;4.73;;;23.20;99.90;;;;;;5021442;28;20413;-54
2022/06/28 07:57:31;;;;;;;4.23;3.93;;;23.40;99.90;;;;;;5027358;28;20438;-50
2022/06/28 07:59:59;;;;;;;4.13;3.83;;;23.90;99.90;;;;;;5026168;28;20780;-49
2022/06/28 08:02:26;;;;;;;3.27;2.97;;;24.60;99.90;;;;;;5018235;28;20684;-48
2022/06/28 08:04:53;;;;;;;3.53;3.33;;;25.40;99.90;;;;;;5019889;28;20501;-53
2022/06/28 08:07:20;;;;;;;4.03;3.37;;;26.70;99.90;;;;;;5019356;28;20751;-49
2022/06/28 08:09:53;;;;;;;3.03;2.83;;;27.10;99.90;;;;;;5012950;28;20528;-51
2022/06/28 08:12:20;;;;;;;4.20;3.23;;;26.30;99.90;;;;;;5019261;28;20489;-48
2022/06/28 08:14:48;;;;;;;3.60;3.30;;;25.60;99.90;;;;;;5018978;28;20439;-53
2022/06/28 08:17:15;;;;;;;3.63;3.43;;;25.40;99.90;;;;;;5019782;28;20599;-49
2022/06/28 08:19:43;;;;;;;3.60;3.40;;;25.30;99.90;;;;;;5019542;28;20509;-49
2022/06/28 08:22:10;;;;;;;4.00;3.70;;;25.60;99.90;;;;;;5028725;28;20670;-53
2022/06/28 08:24:37;;;;;;;4.80;4.40;;;26.00;99.90;;;;;;5023338;28;20743;-53
2022/06/28 08:27:05;;;;;;;3.77;3.57;;;26.20;99.90;;;;;;5019496;28;20481;-51
2022/06/28 08:29:34;;;;;;;4.77;3.40;;;26.60;99.90;;;;;;5019685;28;20592;-51
2022/06/28 08:32:02;;;;;;;3.90;3.50;;;26.60;99.90;;;;;;5019215;28;20486;-51
2022/06/28 08:34:30;;;;;;;4.83;4.43;;;27.00;99.90;;;;;;5019260;28;20432;-53
2022/06/28 08:36:57;;;;;;;5.50;4.03;;;27.00;99.90;;;;;;5019721;28;20448;-50
2022/06/28 08:39:24;;;;;;;3.23;2.93;;;27.10;99.90;;;;;;5015232;28;20487;-54
2022/06/28 08:41:52;;;;;;;4.07;3.67;;;27.40;99.90;;;;;;5018680;28;20475;-53
2022/06/28 08:44:19;;;;;;;5.50;3.50;;;27.50;99.90;;;;;;5030546;28;20437;-52
2022/06/28 08:46:51;;;;;;;5.67;4.80;;;27.60;99.90;;;;;;5024637;28;20419;-50
2022/06/28 08:49:44;;;;;;;5.17;4.77;;;27.60;99.90;;;;;;5021919;28;20428;-52
2022/06/28 08:52:13;;;;;;;4.70;4.30;;;27.40;99.90;;;;;;5007217;28;20479;-52
2022/06/28 08:54:44;;;;;;;4.93;4.43;;;26.80;99.90;;;;;;5019408;28;20436;-51
2022/06/28 08:57:12;;;;;;;6.00;5.40;;;26.10;99.90;;;;;;5023628;28;20445;-52
2022/06/28 08:59:40;;;;;;;4.87;4.47;;;25.50;99.90;;;;;;5029860;28;20461;-53
2022/06/28 09:02:07;;;;;;;4.50;4.10;;;25.00;99.90;;;;;;5030505;28;20800;-52
2022/06/28 09:04:36;;;;;;;4.77;4.27;;;24.60;99.90;;;;;;5022897;28;20484;-52
2022/06/28 09:07:04;;;;;;;4.47;4.07;;;24.30;99.90;;;;;;5023904;28;20417;-51
2022/06/28 09:09:31;;;;;;;5.30;3.97;;;23.90;99.90;;;;;;5023090;28;20448;-51
2022/06/28 09:11:58;;;;;;;6.10;5.17;;;23.80;99.90;;;;;;5023193;28;20458;-53
2022/06/28 09:14:35;;;;;;;4.40;4.10;;;23.60;99.90;;;;;;5022697;28;20434;-53
2022/06/28 09:17:29;;;;;;;3.97;3.67;;;23.70;99.90;;;;;;5023127;28;20434;-52
2022/06/28 09:20:09;;;;;;;5.07;4.67;;;23.80;99.90;;;;;;5015634;28;20445;-51
2022/06/28 09:22:42;;;;;;;4.17;3.80;;;24.00;99.90;;;;;;5028710;28;20433;-46
2022/06/28 09:25:24;;;;;;;6.67;4.10;;;24.00;99.90;;;;;;5024701;28;20479;-48
2022/06/28 09:27:57;;;;;;;4.80;3.70;;;24.00;99.90;;;;;;5019214;28;20438;-50
2022/06/28 09:30:31;;;;;;;8.87;4.53;;;24.10;99.90;;;;;;5011950;28;20444;-48
2022/06/28 09:33:01;;;;;;;5.03;4.07;;;24.10;99.90;;;;;;5022976;28;20456;-51
2022/06/28 09:35:29;;;;;;;3.80;3.50;;;24.10;99.90;;;;;;5023463;28;20405;-51
2022/06/28 09:37:56;;;;;;;4.37;3.97;;;24.20;99.90;;;;;;5023094;28;20461;-52
2022/06/28 09:40:25;;;;;;;5.00;4.53;;;24.50;99.90;;;;;;5022856;28;20453;-51
2022/06/28 09:43:12;;;;;;;3.67;3.37;;;24.90;99.90;;;;;;5022265;28;20503;-50
2022/06/28 09:45:50;;;;;;;4.53;4.10;;;25.70;99.90;;;;;;5036005;28;20430;-46
2022/06/28 09:48:21;;;;;;;4.20;3.90;;;26.60;99.90;;;;;;5025918;28;20485;-50
2022/06/28 09:50:56;;;;;;;6.63;3.73;;;27.30;99.90;;;;;;5019118;28;20444;-47
2022/06/28 09:53:27;;;;;;;5.07;3.40;;;27.60;99.90;;;;;;5025250;28;20514;-51
2022/06/28 09:56:01;;;;;;;4.00;3.70;;;28.00;99.90;;;;;;5024298;28;20413;-47
2022/06/28 09:58:29;;;;;;;6.30;3.53;;;28.30;99.90;;;;;;5029412;28;20437;-50
2022/06/28 10:00:56;;;;;;;9.93;3.53;;;28.60;99.90;;;;;;5029115;28;20434;-48
2022/06/28 10:03:24;;;;;;;3.93;3.57;;;28.80;99.90;;;;;;5031732;28;20830;-50
2022/06/28 10:05:51;;;;;;;7.03;3.20;;;28.80;99.90;;;;;;5036992;28;20671;-49
2022/06/28 10:08:20;;;;;;;8.63;3.50;;;28.70;99.90;;;;;;5021994;28;20438;-49
2022/06/28 10:10:48;;;;;;;3.40;3.10;;;28.40;99.90;;;;;;5016560;28;20768;-49
2022/06/28 10:16:45;;;;;;;3.43;3.20;;;28.30;99.90;;;;;;5021444;28;20426;-51
2022/06/28 10:19:17;;;;;;;3.07;2.73;;;28.20;99.90;;;;;;5022298;28;20438;-54
2022/06/28 10:22:10;;;;;;;3.93;2.97;;;28.20;99.90;;;;;;5021498;28;20415;-50
2022/06/28 10:24:58;;;;;;;4.70;3.67;;;28.10;99.90;;;;;;5021156;28;20505;-54
2022/06/28 10:27:27;;;;;;;3.30;3.10;;;28.20;99.90;;;;;;5018420;28;20783;-49
2022/06/28 10:29:58;;;;;;;3.40;2.90;;;27.80;99.90;;;;;;5021481;28;20457;-51
2022/06/28 10:32:44;;;;;;;2.57;2.37;;;28.10;99.90;;;;;;5020858;28;20461;-48
2022/06/28 10:35:32;;;;;;;3.10;2.90;;;28.60;99.90;;;;;;5021474;28;20442;-53
2022/06/28 10:38:10;;;;;;;3.50;3.23;;;28.80;99.90;;;;;;5012205;28;20496;-50
2022/06/28 10:40:41;;;;;;;4.47;2.90;;;29.20;99.90;;;;;;5021028;28;20485;-52
2022/06/28 10:43:14;;;;;;;3.77;3.47;;;29.30;99.90;;;;;;5021415;28;20799;-46
2022/06/28 10:46:00;;;;;;;3.20;3.00;;;29.30;99.90;;;;;;5021423;28;20504;-50
2022/06/28 10:48:29;;;;;;;3.27;2.97;;;29.60;99.90;;;;;;5021065;28;20438;-49
2022/06/28 10:51:02;;;;;;;4.17;3.87;;;29.90;99.90;;;;;;5028230;28;20438;-51
2022/06/28 10:53:50;;;;;;;3.40;3.10;;;29.60;99.90;;;;;;5026492;28;20476;-52
2022/06/28 10:56:17;;;;;;;4.20;3.60;;;28.70;99.90;;;;;;5016218;28;20435;-51
2022/06/28 10:59:14;;;;;;;4.10;3.70;;;27.70;99.90;;;;;;5014990;28;20434;-51
2022/06/28 11:01:44;;;;;;;5.63;4.80;;;27.20;99.90;;;;;;5018447;28;20454;-51
2022/06/28 11:04:27;;;;;;;3.80;3.50;;;27.20;99.90;;;;;;5020741;28;20430;-52
2022/06/28 11:07:05;;;;;;;4.50;4.10;;;27.20;99.90;;;;;;5014108;28;20450;-50
2022/06/28 11:09:44;;;;;;;4.50;4.00;;;27.30;99.90;;;;;;5019601;28;20440;-51
2022/06/28 11:12:35;;;;;;;3.63;3.33;;;27.20;99.90;;;;;;5021101;28;20465;-49
2022/06/28 11:15:35;;;;;;;4.47;3.90;;;27.00;99.90;;;;;;5014803;28;20453;-48
2022/06/28 11:18:13;;;;;;;4.13;3.40;;;27.10;99.90;;;;;;5018322;28;20416;-50
2022/06/28 11:20:41;;;;;;;6.93;4.23;;;27.20;99.90;;;;;;5020566;28;20536;-51
2022/06/28 11:23:08;;;;;;;2.90;2.70;;;27.60;99.90;;;;;;5018939;28;20432;-50
2022/06/28 11:29:00;;;;;;;4.53;3.10;;;28.00;99.90;;;;;;5015308;28;20433;-52
2022/06/28 11:31:30;;;;;;;4.67;3.83;;;27.60;99.90;;;;;;5021100;28;20516;-51
2022/06/28 11:33:59;;;;;;;3.43;3.13;;;27.30;99.90;;;;;;5021006;28;20481;-50
2022/06/28 11:36:30;;;;;;;3.87;3.47;;;27.30;99.90;;;;;;5020340;28;20438;-48
2022/06/28 11:39:19;;;;;;;4.30;3.43;;;27.40;99.90;;;;;;5017904;28;20444;-48
2022/06/28 11:41:53;;;;;;;5.73;4.70;;;27.30;99.90;;;;;;5020557;28;20448;-51
2022/06/28 11:44:23;;;;;;;3.63;3.33;;;27.20;99.90;;;;;;5026459;28;20464;-47
2022/06/28 11:46:51;;;;;;;3.37;3.07;;;26.90;99.90;;;;;;5020685;28;20833;-51
2022/06/28 11:49:32;;;;;;;3.40;3.10;;;27.00;99.90;;;;;;5020633;28;20445;-52
2022/06/28 11:52:01;;;;;;;3.17;2.90;;;27.20;99.90;;;;;;5019663;28;20507;-51
2022/06/28 11:54:28;;;;;;;3.93;3.53;;;27.40;99.90;;;;;;5032337;28;20506;-51
2022/06/28 11:56:56;;;;;;;4.37;2.60;;;27.60;99.90;;;;;;5020726;28;20638;-48
2022/06/28 11:59:58;;;;;;;3.30;3.10;;;28.00;99.90;;;;;;5020302;28;20620;-52
2022/06/28 12:02:50;;;;;;;4.47;4.07;;;28.40;99.90;;;;;;5019840;28;20429;-48
2022/06/28 12:05:32;;;;;;;3.80;3.50;;;27.40;99.90;;;;;;5020573;28;20436;-50
2022/06/28 12:08:01;;;;;;;3.47;3.17;;;27.50;99.90;;;;;;5019396;28;20549;-49
2022/06/28 12:10:30;;;;;;;3.07;2.87;;;27.10;99.90;;;;;;5019949;28;20440;-50
2022/06/28 12:12:59;;;;;;;3.73;3.13;;;27.00;99.90;;;;;;5019695;28;20480;-54
2022/06/28 12:15:35;;;;;;;3.30;3.10;;;27.30;99.90;;;;;;5019946;28;20450;-48
2022/06/28 12:18:05;;;;;;;3.63;3.33;;;27.60;99.90;;;;;;5019937;28;20437;-55
2022/06/28 12:20:33;;;;;;;2.80;2.57;;;27.90;99.90;;;;;;5019883;28;20448;-52
2022/06/28 12:23:06;;;;;;;3.13;2.90;;;28.20;99.90;;;;;;5009588;28;20504;-51
2022/06/28 12:25:35;;;;;;;3.67;3.03;;;28.40;99.90;;;;;;5004990;28;20816;-53
2022/06/28 12:28:02;;;;;;;4.17;3.77;;;28.40;99.90;;;;;;5012262;28;20442;-53
2022/06/28 12:30:29;;;;;;;2.87;2.60;;;28.40;99.90;;;;;;5020013;28;20447;-53
2022/06/28 12:32:59;;;;;;;3.00;2.80;;;28.50;99.90;;;;;;5017412;28;20513;-51
2022/06/28 12:35:26;;;;;;;3.87;3.17;;;28.80;99.90;;;;;;5007626;28;20436;-49
2022/06/28 12:37:54;;;;;;;2.13;2.03;;;29.00;99.90;;;;;;5016437;28;20466;-53
2022/06/28 12:40:24;;;;;;;3.43;2.77;;;29.00;99.90;;;;;;5018621;28;20446;-52
2022/06/28 12:42:51;;;;;;;3.30;3.00;;;28.70;99.90;;;;;;5024522;28;20461;-53
2022/06/28 12:45:18;;;;;;;3.97;3.67;;;28.50;99.90;;;;;;5019549;28;20758;-51
2022/06/28 12:47:45;;;;;;;3.13;2.93;;;28.70;99.90;;;;;;5020216;28;20435;-51
2022/06/28 12:50:15;;;;;;;3.67;3.27;;;28.30;99.90;;;;;;5019603;28;20406;-53
2022/06/28 12:52:44;;;;;;;3.00;2.80;;;28.40;99.90;;;;;;5019975;28;20451;-53
2022/06/28 12:55:12;;;;;;;3.87;3.57;;;29.00;99.90;;;;;;5017023;28;20437;-51
2022/06/28 12:57:44;;;;;;;3.17;2.97;;;28.70;99.90;;;;;;5021047;28;20409;-55
2022/06/28 13:00:13;;;;;;;4.43;2.83;;;28.80;99.90;;;;;;5020587;28;20595;-53
2022/06/28 13:02:41;;;;;;;3.10;2.90;;;29.30;99.90;;;;;;5019440;28;20459;-54
2022/06/28 13:05:12;;;;;;;4.10;3.80;;;29.60;99.90;;;;;;5019004;28;20500;-50
2022/06/28 13:07:41;;;;;;;3.40;3.17;;;30.00;99.90;;;;;;5015885;28;20418;-53
2022/06/28 13:10:11;;;;;;;3.73;3.43;;;29.80;99.90;;;;;;5018552;28;20765;-53
2022/06/28 13:12:38;;;;;;;3.67;3.30;;;29.80;99.90;;;;;;5019141;28;20462;-52
2022/06/28 13:15:06;;;;;;;5.93;3.50;;;29.60;99.90;;;;;;5019498;28;20524;-51
2022/06/28 13:17:33;;;;;;;3.83;3.53;;;29.30;99.90;;;;;;5019199;28;20438;-50